sensor_id;sensor_type;location;lat;lon;timestamp;P1;durP1;ratioP1;P2;durP2;ratioP2
49103;SDS011;34915;52.926;11.116;2022-12-07T00:01:11;7.13;;;3.87;;
49103;SDS011;34915;52.926;11.116;2022-12-07T00:03:39;9.13;;;5.00;;
49103;SDS011;34915;52.926;11.116;2022-12-07T00:06:07;8.10;;;3.93;;
49103;SDS011;34915;52.926;11.116;2022-12-07T00:08:33;11.93;;;6.60;;
49103;SDS011;34915;52.926;11.116;2022-12-07T00:11:03;10.90;;;4.93;;
49103;SDS011;34915;52.926;11.116;2022-12-07T00:13:30;13.67;;;6.97;;
49103;SDS011;34915;52.926;11.116;2022-12-07T00:15:59;11.03;;;7.40;;
49103;SDS011;34915;52.926;11.116;2022-12-07T00:18:29;12.10;;;6.20;;
49103;SDS011;34915;52.926;11.116;2022-12-07T00:21:04;13.20;;;7.27;;
49103;SDS011;34915;52.926;11.116;2022-12-07T00:23:32;11.57;;;6.67;;
49103;SDS011;34915;52.926;11.116;2022-12-07T00:26:11;7.07;;;3.60;;
49103;SDS011;34915;52.926;11.116;2022-12-07T00:28:37;6.17;;;4.13;;
49103;SDS011;34915;52.926;11.116;2022-12-07T00:31:04;12.97;;;6.00;;
49103;SDS011;34915;52.926;11.116;2022-12-07T00:33:34;11.07;;;6.33;;
49103;SDS011;34915;52.926;11.116;2022-12-07T00:36:01;11.30;;;6.00;;
49103;SDS011;34915;52.926;11.116;2022-12-07T00:38:29;12.83;;;6.30;;
49103;SDS011;34915;52.926;11.116;2022-12-07T00:40:57;7.70;;;4.13;;
49103;SDS011;34915;52.926;11.116;2022-12-07T00:43:26;12.77;;;4.90;;
49103;SDS011;34915;52.926;11.116;2022-12-07T00:45:52;5.30;;;3.57;;
49103;SDS011;34915;52.926;11.116;2022-12-07T00:48:19;6.53;;;3.70;;
49103;SDS011;34915;52.926;11.116;2022-12-07T00:50:45;11.13;;;4.80;;
49103;SDS011;34915;52.926;11.116;2022-12-07T00:53:11;6.80;;;3.97;;
49103;SDS011;34915;52.926;11.116;2022-12-07T00:55:37;10.50;;;4.37;;
49103;SDS011;34915;52.926;11.116;2022-12-07T00:58:03;9.70;;;4.57;;
49103;SDS011;34915;52.926;11.116;2022-12-07T01:00:29;7.40;;;3.73;;
49103;SDS011;34915;52.926;11.116;2022-12-07T01:02:55;11.27;;;5.50;;
49103;SDS011;34915;52.926;11.116;2022-12-07T01:05:21;5.90;;;3.93;;
49103;SDS011;34915;52.926;11.116;2022-12-07T01:07:46;8.07;;;4.53;;
49103;SDS011;34915;52.926;11.116;2022-12-07T01:10:12;10.63;;;4.37;;
49103;SDS011;34915;52.926;11.116;2022-12-07T01:12:41;13.27;;;6.07;;
49103;SDS011;34915;52.926;11.116;2022-12-07T01:15:07;6.17;;;3.83;;
49103;SDS011;34915;52.926;11.116;2022-12-07T01:17:33;12.27;;;6.63;;
49103;SDS011;34915;52.926;11.116;2022-12-07T01:19:59;8.10;;;4.63;;
49103;SDS011;34915;52.926;11.116;2022-12-07T01:22:25;7.77;;;3.83;;
49103;SDS011;34915;52.926;11.116;2022-12-07T01:24:51;8.73;;;4.03;;
49103;SDS011;34915;52.926;11.116;2022-12-07T01:27:17;11.30;;;4.50;;
49103;SDS011;34915;52.926;11.116;2022-12-07T01:29:43;9.80;;;4.77;;
49103;SDS011;34915;52.926;11.116;2022-12-07T01:32:08;7.87;;;4.53;;
49103;SDS011;34915;52.926;11.116;2022-12-07T01:34:34;9.53;;;4.77;;
49103;SDS011;34915;52.926;11.116;2022-12-07T01:37:00;6.13;;;4.17;;
49103;SDS011;34915;52.926;11.116;2022-12-07T01:39:25;8.00;;;3.70;;
49103;SDS011;34915;52.926;11.116;2022-12-07T01:41:52;10.07;;;4.93;;
49103;SDS011;34915;52.926;11.116;2022-12-07T01:44:19;11.53;;;4.10;;
49103;SDS011;34915;52.926;11.116;2022-12-07T01:46:54;11.17;;;5.03;;
49103;SDS011;34915;52.926;11.116;2022-12-07T01:49:26;8.13;;;4.00;;
49103;SDS011;34915;52.926;11.116;2022-12-07T01:51:56;8.53;;;4.70;;
49103;SDS011;34915;52.926;11.116;2022-12-07T01:54:29;6.30;;;3.87;;
49103;SDS011;34915;52.926;11.116;2022-12-07T01:56:55;6.63;;;3.97;;
49103;SDS011;34915;52.926;11.116;2022-12-07T01:59:23;4.50;;;2.90;;
49103;SDS011;34915;52.926;11.116;2022-12-07T02:01:52;8.33;;;3.93;;
49103;SDS011;34915;52.926;11.116;2022-12-07T02:04:19;9.50;;;4.73;;
49103;SDS011;34915;52.926;11.116;2022-12-07T02:06:46;10.90;;;5.97;;
49103;SDS011;34915;52.926;11.116;2022-12-07T02:09:12;6.27;;;3.97;;
49103;SDS011;34915;52.926;11.116;2022-12-07T02:11:38;9.17;;;4.03;;
49103;SDS011;34915;52.926;11.116;2022-12-07T02:14:05;5.50;;;3.70;;
49103;SDS011;34915;52.926;11.116;2022-12-07T02:19:39;5.93;;;3.13;;
49103;SDS011;34915;52.926;11.116;2022-12-07T02:30:27;7.37;;;3.67;;
49103;SDS011;34915;52.926;11.116;2022-12-07T02:35:27;14.10;;;6.03;;
49103;SDS011;34915;52.926;11.116;2022-12-07T02:38:06;9.17;;;5.63;;
49103;SDS011;34915;52.926;11.116;2022-12-07T02:44:18;7.90;;;3.43;;
49103;SDS011;34915;52.926;11.116;2022-12-07T02:46:21;10.40;;;5.30;;
49103;SDS011;34915;52.926;11.116;2022-12-07T02:48:50;10.70;;;5.53;;
49103;SDS011;34915;52.926;11.116;2022-12-07T02:51:18;6.27;;;4.23;;
49103;SDS011;34915;52.926;11.116;2022-12-07T02:53:44;6.10;;;3.63;;
49103;SDS011;34915;52.926;11.116;2022-12-07T03:15:35;7.67;;;3.33;;
49103;SDS011;34915;52.926;11.116;2022-12-07T03:18:10;4.30;;;2.87;;
49103;SDS011;34915;52.926;11.116;2022-12-07T03:20:38;4.73;;;2.70;;
49103;SDS011;34915;52.926;11.116;2022-12-07T03:23:07;5.33;;;2.57;;
49103;SDS011;34915;52.926;11.116;2022-12-07T03:25:35;4.30;;;2.87;;
49103;SDS011;34915;52.926;11.116;2022-12-07T03:28:06;20.97;;;3.10;;
49103;SDS011;34915;52.926;11.116;2022-12-07T03:30:42;3.20;;;2.20;;
49103;SDS011;34915;52.926;11.116;2022-12-07T03:33:31;5.87;;;3.23;;
49103;SDS011;34915;52.926;11.116;2022-12-07T03:36:05;4.57;;;2.97;;
49103;SDS011;34915;52.926;11.116;2022-12-07T03:38:55;5.47;;;3.10;;
49103;SDS011;34915;52.926;11.116;2022-12-07T03:41:30;4.40;;;2.30;;
49103;SDS011;34915;52.926;11.116;2022-12-07T03:43:58;2.73;;;2.03;;
49103;SDS011;34915;52.926;11.116;2022-12-07T03:46:34;3.63;;;2.43;;
49103;SDS011;34915;52.926;11.116;2022-12-07T03:54:19;4.10;;;2.93;;
49103;SDS011;34915;52.926;11.116;2022-12-07T03:56:58;5.07;;;3.03;;
49103;SDS011;34915;52.926;11.116;2022-12-07T03:59:24;2.47;;;2.20;;
49103;SDS011;34915;52.926;11.116;2022-12-07T04:01:55;7.60;;;2.63;;
49103;SDS011;34915;52.926;11.116;2022-12-07T04:04:26;3.60;;;2.30;;
49103;SDS011;34915;52.926;11.116;2022-12-07T04:06:55;6.37;;;2.70;;
49103;SDS011;34915;52.926;11.116;2022-12-07T04:09:21;6.87;;;4.33;;
49103;SDS011;34915;52.926;11.116;2022-12-07T04:11:47;4.47;;;2.23;;
49103;SDS011;34915;52.926;11.116;2022-12-07T04:14:13;4.47;;;2.97;;
49103;SDS011;34915;52.926;11.116;2022-12-07T04:16:48;7.67;;;4.87;;
49103;SDS011;34915;52.926;11.116;2022-12-07T04:19:17;3.70;;;2.47;;
49103;SDS011;34915;52.926;11.116;2022-12-07T04:21:47;2.63;;;1.80;;
49103;SDS011;34915;52.926;11.116;2022-12-07T04:24:13;5.73;;;3.27;;
49103;SDS011;34915;52.926;11.116;2022-12-07T04:26:40;3.40;;;2.73;;
49103;SDS011;34915;52.926;11.116;2022-12-07T04:29:07;4.47;;;2.60;;
49103;SDS011;34915;52.926;11.116;2022-12-07T04:31:35;3.40;;;2.27;;
49103;SDS011;34915;52.926;11.116;2022-12-07T04:34:02;4.47;;;2.57;;
49103;SDS011;34915;52.926;11.116;2022-12-07T04:36:27;3.63;;;2.50;;
49103;SDS011;34915;52.926;11.116;2022-12-07T04:38:53;6.40;;;3.00;;
49103;SDS011;34915;52.926;11.116;2022-12-07T04:41:20;2.87;;;2.03;;
49103;SDS011;34915;52.926;11.116;2022-12-07T04:43:55;4.40;;;2.80;;
49103;SDS011;34915;52.926;11.116;2022-12-07T04:46:23;4.23;;;1.87;;
49103;SDS011;34915;52.926;11.116;2022-12-07T04:48:50;2.10;;;1.80;;
49103;SDS011;34915;52.926;11.116;2022-12-07T04:51:18;4.40;;;2.40;;
49103;SDS011;34915;52.926;11.116;2022-12-07T04:53:46;2.90;;;1.53;;
49103;SDS011;34915;52.926;11.116;2022-12-07T04:56:12;10.77;;;1.90;;
49103;SDS011;34915;52.926;11.116;2022-12-07T04:58:38;6.30;;;2.00;;
49103;SDS011;34915;52.926;11.116;2022-12-07T05:01:04;5.93;;;1.83;;
49103;SDS011;34915;52.926;11.116;2022-12-07T05:03:29;3.73;;;2.53;;
49103;SDS011;34915;52.926;11.116;2022-12-07T05:05:55;1.97;;;1.40;;
49103;SDS011;34915;52.926;11.116;2022-12-07T05:08:21;4.70;;;2.10;;
49103;SDS011;34915;52.926;11.116;2022-12-07T05:10:48;2.00;;;1.33;;
49103;SDS011;34915;52.926;11.116;2022-12-07T05:13:14;1.17;;;0.90;;
49103;SDS011;34915;52.926;11.116;2022-12-07T05:15:40;2.40;;;1.67;;
49103;SDS011;34915;52.926;11.116;2022-12-07T05:18:05;1.83;;;1.30;;
49103;SDS011;34915;52.926;11.116;2022-12-07T05:20:31;2.50;;;1.33;;
49103;SDS011;34915;52.926;11.116;2022-12-07T05:22:57;2.70;;;1.80;;
49103;SDS011;34915;52.926;11.116;2022-12-07T05:25:23;1.53;;;1.10;;
49103;SDS011;34915;52.926;11.116;2022-12-07T05:27:49;3.07;;;1.73;;
49103;SDS011;34915;52.926;11.116;2022-12-07T05:30:15;2.33;;;1.57;;
49103;SDS011;34915;52.926;11.116;2022-12-07T05:32:40;2.40;;;1.40;;
49103;SDS011;34915;52.926;11.116;2022-12-07T05:35:06;3.77;;;2.60;;
49103;SDS011;34915;52.926;11.116;2022-12-07T05:37:32;3.40;;;2.43;;
49103;SDS011;34915;52.926;11.116;2022-12-07T05:39:58;2.00;;;1.40;;
49103;SDS011;34915;52.926;11.116;2022-12-07T05:42:23;3.03;;;1.73;;
49103;SDS011;34915;52.926;11.116;2022-12-07T05:44:49;2.20;;;1.73;;
49103;SDS011;34915;52.926;11.116;2022-12-07T05:47:15;2.70;;;1.90;;
49103;SDS011;34915;52.926;11.116;2022-12-07T05:49:40;2.60;;;1.90;;
49103;SDS011;34915;52.926;11.116;2022-12-07T05:52:06;2.20;;;1.80;;
49103;SDS011;34915;52.926;11.116;2022-12-07T05:54:32;5.13;;;1.90;;
49103;SDS011;34915;52.926;11.116;2022-12-07T05:56:58;1.43;;;1.30;;
49103;SDS011;34915;52.926;11.116;2022-12-07T05:59:27;4.57;;;2.10;;
49103;SDS011;34915;52.926;11.116;2022-12-07T06:01:54;3.03;;;2.27;;
49103;SDS011;34915;52.926;11.116;2022-12-07T06:04:29;2.47;;;2.10;;
49103;SDS011;34915;52.926;11.116;2022-12-07T06:06:57;2.70;;;2.40;;
49103;SDS011;34915;52.926;11.116;2022-12-07T06:09:24;3.50;;;2.73;;
49103;SDS011;34915;52.926;11.116;2022-12-07T06:11:50;4.87;;;4.43;;
49103;SDS011;34915;52.926;11.116;2022-12-07T06:14:35;5.37;;;2.73;;
49103;SDS011;34915;52.926;11.116;2022-12-07T06:17:03;4.33;;;3.13;;
49103;SDS011;34915;52.926;11.116;2022-12-07T06:19:29;3.50;;;2.80;;
49103;SDS011;34915;52.926;11.116;2022-12-07T06:21:54;6.40;;;3.83;;
49103;SDS011;34915;52.926;11.116;2022-12-07T06:24:21;6.50;;;4.03;;
49103;SDS011;34915;52.926;11.116;2022-12-07T06:26:47;3.90;;;2.60;;
49103;SDS011;34915;52.926;11.116;2022-12-07T06:29:13;7.33;;;3.97;;
49103;SDS011;34915;52.926;11.116;2022-12-07T06:31:39;5.30;;;2.97;;
49103;SDS011;34915;52.926;11.116;2022-12-07T06:34:06;3.17;;;2.77;;
49103;SDS011;34915;52.926;11.116;2022-12-07T06:36:35;3.27;;;2.23;;
49103;SDS011;34915;52.926;11.116;2022-12-07T06:39:03;3.50;;;2.10;;
49103;SDS011;34915;52.926;11.116;2022-12-07T06:41:30;5.70;;;2.30;;
49103;SDS011;34915;52.926;11.116;2022-12-07T06:43:56;3.03;;;2.10;;
49103;SDS011;34915;52.926;11.116;2022-12-07T06:46:21;4.37;;;2.53;;
49103;SDS011;34915;52.926;11.116;2022-12-07T06:48:47;4.33;;;2.00;;
49103;SDS011;34915;52.926;11.116;2022-12-07T06:51:13;4.47;;;2.33;;
49103;SDS011;34915;52.926;11.116;2022-12-07T06:53:39;4.83;;;1.87;;
49103;SDS011;34915;52.926;11.116;2022-12-07T06:56:04;3.57;;;1.97;;
49103;SDS011;34915;52.926;11.116;2022-12-07T06:58:30;3.63;;;2.23;;
49103;SDS011;34915;52.926;11.116;2022-12-07T07:00:56;6.17;;;1.80;;
49103;SDS011;34915;52.926;11.116;2022-12-07T07:03:22;5.53;;;1.90;;
49103;SDS011;34915;52.926;11.116;2022-12-07T07:05:47;2.47;;;1.77;;
49103;SDS011;34915;52.926;11.116;2022-12-07T07:08:13;4.70;;;2.30;;
49103;SDS011;34915;52.926;11.116;2022-12-07T07:10:40;5.37;;;3.70;;
49103;SDS011;34915;52.926;11.116;2022-12-07T07:13:06;2.97;;;2.10;;
49103;SDS011;34915;52.926;11.116;2022-12-07T07:15:32;5.03;;;2.13;;
49103;SDS011;34915;52.926;11.116;2022-12-07T07:17:58;2.10;;;1.30;;
49103;SDS011;34915;52.926;11.116;2022-12-07T07:20:24;4.43;;;1.90;;
49103;SDS011;34915;52.926;11.116;2022-12-07T07:22:50;2.87;;;1.80;;
49103;SDS011;34915;52.926;11.116;2022-12-07T07:25:18;2.83;;;2.07;;
49103;SDS011;34915;52.926;11.116;2022-12-07T07:27:44;4.07;;;1.87;;
49103;SDS011;34915;52.926;11.116;2022-12-07T07:30:10;2.70;;;2.10;;
49103;SDS011;34915;52.926;11.116;2022-12-07T07:32:38;3.43;;;2.60;;
49103;SDS011;34915;52.926;11.116;2022-12-07T07:35:04;3.23;;;2.37;;
49103;SDS011;34915;52.926;11.116;2022-12-07T07:37:30;2.90;;;2.13;;
49103;SDS011;34915;52.926;11.116;2022-12-07T07:39:55;4.27;;;2.60;;
49103;SDS011;34915;52.926;11.116;2022-12-07T07:42:21;3.13;;;2.27;;
49103;SDS011;34915;52.926;11.116;2022-12-07T07:44:47;3.97;;;2.50;;
49103;SDS011;34915;52.926;11.116;2022-12-07T07:47:13;2.90;;;2.10;;
49103;SDS011;34915;52.926;11.116;2022-12-07T07:49:38;2.57;;;2.23;;
49103;SDS011;34915;52.926;11.116;2022-12-07T07:52:07;5.03;;;2.93;;
49103;SDS011;34915;52.926;11.116;2022-12-07T07:54:33;3.03;;;2.37;;
49103;SDS011;34915;52.926;11.116;2022-12-07T07:57:00;2.63;;;1.97;;
49103;SDS011;34915;52.926;11.116;2022-12-07T07:59:26;3.80;;;2.60;;
49103;SDS011;34915;52.926;11.116;2022-12-07T08:01:51;3.57;;;2.60;;
49103;SDS011;34915;52.926;11.116;2022-12-07T08:04:17;17.90;;;7.87;;
49103;SDS011;34915;52.926;11.116;2022-12-07T08:06:42;11.03;;;4.83;;
49103;SDS011;34915;52.926;11.116;2022-12-07T08:09:08;9.77;;;6.20;;
49103;SDS011;34915;52.926;11.116;2022-12-07T08:11:34;5.33;;;3.70;;
49103;SDS011;34915;52.926;11.116;2022-12-07T08:14:01;8.90;;;4.10;;
49103;SDS011;34915;52.926;11.116;2022-12-07T08:16:27;7.50;;;3.80;;
49103;SDS011;34915;52.926;11.116;2022-12-07T08:18:53;1.73;;;1.20;;
49103;SDS011;34915;52.926;11.116;2022-12-07T08:21:18;2.23;;;1.87;;
49103;SDS011;34915;52.926;11.116;2022-12-07T08:23:44;4.13;;;3.37;;
49103;SDS011;34915;52.926;11.116;2022-12-07T08:26:11;3.53;;;2.10;;
49103;SDS011;34915;52.926;11.116;2022-12-07T08:28:39;5.43;;;3.23;;
49103;SDS011;34915;52.926;11.116;2022-12-07T08:31:12;4.37;;;3.03;;
49103;SDS011;34915;52.926;11.116;2022-12-07T08:33:39;4.33;;;2.27;;
49103;SDS011;34915;52.926;11.116;2022-12-07T08:36:06;4.73;;;2.23;;
49103;SDS011;34915;52.926;11.116;2022-12-07T08:38:34;4.70;;;2.57;;
49103;SDS011;34915;52.926;11.116;2022-12-07T08:41:01;3.30;;;2.10;;
49103;SDS011;34915;52.926;11.116;2022-12-07T08:43:27;2.00;;;1.80;;
49103;SDS011;34915;52.926;11.116;2022-12-07T08:46:12;2.53;;;1.63;;
49103;SDS011;34915;52.926;11.116;2022-12-07T08:51:37;4.50;;;2.83;;
49103;SDS011;34915;52.926;11.116;2022-12-07T08:54:05;3.70;;;2.70;;
49103;SDS011;34915;52.926;11.116;2022-12-07T08:56:34;4.47;;;3.37;;
49103;SDS011;34915;52.926;11.116;2022-12-07T08:59:00;2.83;;;1.70;;
49103;SDS011;34915;52.926;11.116;2022-12-07T09:01:26;2.07;;;1.30;;
49103;SDS011;34915;52.926;11.116;2022-12-07T09:03:52;7.10;;;2.27;;
49103;SDS011;34915;52.926;11.116;2022-12-07T09:06:17;4.97;;;3.17;;
49103;SDS011;34915;52.926;11.116;2022-12-07T09:08:45;3.10;;;1.50;;
49103;SDS011;34915;52.926;11.116;2022-12-07T09:11:13;2.70;;;1.43;;
49103;SDS011;34915;52.926;11.116;2022-12-07T09:13:38;4.10;;;1.47;;
49103;SDS011;34915;52.926;11.116;2022-12-07T09:16:04;2.23;;;1.40;;
49103;SDS011;34915;52.926;11.116;2022-12-07T09:18:30;2.50;;;1.80;;
49103;SDS011;34915;52.926;11.116;2022-12-07T09:20:56;5.03;;;2.43;;
49103;SDS011;34915;52.926;11.116;2022-12-07T09:23:22;2.97;;;1.53;;
49103;SDS011;34915;52.926;11.116;2022-12-07T09:25:47;1.77;;;1.60;;
49103;SDS011;34915;52.926;11.116;2022-12-07T09:28:13;2.50;;;1.53;;
49103;SDS011;34915;52.926;11.116;2022-12-07T09:30:39;3.20;;;1.30;;
49103;SDS011;34915;52.926;11.116;2022-12-07T09:33:10;2.27;;;1.57;;
49103;SDS011;34915;52.926;11.116;2022-12-07T09:35:36;1.60;;;1.50;;
49103;SDS011;34915;52.926;11.116;2022-12-07T09:38:01;1.87;;;1.70;;
49103;SDS011;34915;52.926;11.116;2022-12-07T09:40:27;2.93;;;1.97;;
49103;SDS011;34915;52.926;11.116;2022-12-07T09:42:53;5.43;;;2.03;;
49103;SDS011;34915;52.926;11.116;2022-12-07T09:45:25;2.97;;;1.83;;
49103;SDS011;34915;52.926;11.116;2022-12-07T09:47:55;2.73;;;2.07;;
49103;SDS011;34915;52.926;11.116;2022-12-07T09:50:26;2.23;;;1.67;;
49103;SDS011;34915;52.926;11.116;2022-12-07T09:52:53;2.47;;;1.83;;
49103;SDS011;34915;52.926;11.116;2022-12-07T09:55:28;7.33;;;1.50;;
49103;SDS011;34915;52.926;11.116;2022-12-07T09:57:54;3.00;;;2.13;;
49103;SDS011;34915;52.926;11.116;2022-12-07T10:00:22;3.10;;;1.20;;
49103;SDS011;34915;52.926;11.116;2022-12-07T10:05:21;1.77;;;1.30;;
49103;SDS011;34915;52.926;11.116;2022-12-07T10:07:50;1.83;;;1.43;;
49103;SDS011;34915;52.926;11.116;2022-12-07T10:10:38;2.57;;;1.70;;
49103;SDS011;34915;52.926;11.116;2022-12-07T10:13:13;1.27;;;1.10;;
49103;SDS011;34915;52.926;11.116;2022-12-07T10:20:46;6.63;;;1.20;;
49103;SDS011;34915;52.926;11.116;2022-12-07T10:23:14;1.50;;;1.20;;
49103;SDS011;34915;52.926;11.116;2022-12-07T10:25:42;1.33;;;1.23;;
49103;SDS011;34915;52.926;11.116;2022-12-07T10:30:46;2.37;;;2.17;;
49103;SDS011;34915;52.926;11.116;2022-12-07T10:33:34;2.33;;;2.03;;
49103;SDS011;34915;52.926;11.116;2022-12-07T10:36:18;1.87;;;1.70;;
49103;SDS011;34915;52.926;11.116;2022-12-07T10:38:53;2.67;;;2.33;;
49103;SDS011;34915;52.926;11.116;2022-12-07T10:41:35;2.03;;;1.80;;
49103;SDS011;34915;52.926;11.116;2022-12-07T10:44:01;2.80;;;2.40;;
49103;SDS011;34915;52.926;11.116;2022-12-07T10:51:51;3.73;;;2.63;;
49103;SDS011;34915;52.926;11.116;2022-12-07T11:00:02;4.53;;;1.63;;
49103;SDS011;34915;52.926;11.116;2022-12-07T11:02:49;6.67;;;1.63;;
49103;SDS011;34915;52.926;11.116;2022-12-07T11:18:39;1.63;;;1.33;;
49103;SDS011;34915;52.926;11.116;2022-12-07T11:21:17;2.00;;;1.57;;
49103;SDS011;34915;52.926;11.116;2022-12-07T11:29:34;1.67;;;1.23;;
49103;SDS011;34915;52.926;11.116;2022-12-07T11:35:27;3.53;;;2.20;;
49103;SDS011;34915;52.926;11.116;2022-12-07T11:37:57;4.67;;;2.93;;
49103;SDS011;34915;52.926;11.116;2022-12-07T11:40:28;4.33;;;2.60;;
49103;SDS011;34915;52.926;11.116;2022-12-07T11:45:59;5.30;;;2.33;;
49103;SDS011;34915;52.926;11.116;2022-12-07T11:48:31;3.60;;;2.40;;
49103;SDS011;34915;52.926;11.116;2022-12-07T11:51:00;3.27;;;2.03;;
49103;SDS011;34915;52.926;11.116;2022-12-07T11:56:36;3.50;;;1.80;;
49103;SDS011;34915;52.926;11.116;2022-12-07T11:59:08;2.07;;;1.70;;
49103;SDS011;34915;52.926;11.116;2022-12-07T12:01:53;2.00;;;1.17;;
49103;SDS011;34915;52.926;11.116;2022-12-07T12:07:22;1.10;;;0.97;;
49103;SDS011;34915;52.926;11.116;2022-12-07T12:09:52;1.87;;;1.20;;
49103;SDS011;34915;52.926;11.116;2022-12-07T12:18:17;1.23;;;1.13;;
49103;SDS011;34915;52.926;11.116;2022-12-07T12:20:56;2.63;;;1.13;;
49103;SDS011;34915;52.926;11.116;2022-12-07T12:26:33;3.17;;;1.00;;
49103;SDS011;34915;52.926;11.116;2022-12-07T12:31:46;1.50;;;0.50;;
49103;SDS011;34915;52.926;11.116;2022-12-07T12:37:53;1.47;;;1.33;;
49103;SDS011;34915;52.926;11.116;2022-12-07T12:42:50;1.83;;;0.80;;
49103;SDS011;34915;52.926;11.116;2022-12-07T12:50:33;1.00;;;0.97;;
49103;SDS011;34915;52.926;11.116;2022-12-07T12:53:13;1.63;;;0.80;;
49103;SDS011;34915;52.926;11.116;2022-12-07T13:00:42;2.23;;;1.60;;
49103;SDS011;34915;52.926;11.116;2022-12-07T13:03:20;0.93;;;0.83;;
49103;SDS011;34915;52.926;11.116;2022-12-07T13:06:08;4.53;;;0.97;;
49103;SDS011;34915;52.926;11.116;2022-12-07T13:08:44;2.07;;;1.10;;
49103;SDS011;34915;52.926;11.116;2022-12-07T13:17:54;1.40;;;1.03;;
49103;SDS011;34915;52.926;11.116;2022-12-07T13:20:01;0.37;;;0.37;;
49103;SDS011;34915;52.926;11.116;2022-12-07T13:30:47;7.60;;;1.40;;
49103;SDS011;34915;52.926;11.116;2022-12-07T13:33:15;4.37;;;0.70;;
49103;SDS011;34915;52.926;11.116;2022-12-07T13:35:43;1.10;;;0.93;;
49103;SDS011;34915;52.926;11.116;2022-12-07T13:38:16;1.20;;;1.03;;
49103;SDS011;34915;52.926;11.116;2022-12-07T13:43:54;1.00;;;1.00;;
49103;SDS011;34915;52.926;11.116;2022-12-07T13:47:30;0.87;;;0.87;;
49103;SDS011;34915;52.926;11.116;2022-12-07T13:49:28;0.90;;;0.90;;
49103;SDS011;34915;52.926;11.116;2022-12-07T13:52:18;0.93;;;0.83;;
49103;SDS011;34915;52.926;11.116;2022-12-07T13:54:55;1.30;;;1.20;;
49103;SDS011;34915;52.926;11.116;2022-12-07T13:57:27;1.77;;;0.87;;
49103;SDS011;34915;52.926;11.116;2022-12-07T13:59:55;0.80;;;0.77;;
49103;SDS011;34915;52.926;11.116;2022-12-07T14:05:09;1.47;;;1.00;;
49103;SDS011;34915;52.926;11.116;2022-12-07T14:07:48;2.00;;;1.13;;
49103;SDS011;34915;52.926;11.116;2022-12-07T14:10:31;5.10;;;0.90;;
49103;SDS011;34915;52.926;11.116;2022-12-07T14:13:03;1.50;;;1.40;;
49103;SDS011;34915;52.926;11.116;2022-12-07T14:15:49;2.03;;;1.63;;
49103;SDS011;34915;52.926;11.116;2022-12-07T14:18:48;0.73;;;0.57;;
49103;SDS011;34915;52.926;11.116;2022-12-07T14:23:37;1.17;;;0.57;;
49103;SDS011;34915;52.926;11.116;2022-12-07T14:26:07;1.40;;;0.87;;
49103;SDS011;34915;52.926;11.116;2022-12-07T14:28:34;0.50;;;0.50;;
49103;SDS011;34915;52.926;11.116;2022-12-07T14:31:02;1.03;;;0.80;;
49103;SDS011;34915;52.926;11.116;2022-12-07T14:33:28;0.70;;;0.67;;
49103;SDS011;34915;52.926;11.116;2022-12-07T14:35:54;1.57;;;0.77;;
49103;SDS011;34915;52.926;11.116;2022-12-07T14:38:23;3.47;;;0.80;;
49103;SDS011;34915;52.926;11.116;2022-12-07T14:40:50;6.23;;;1.00;;
49103;SDS011;34915;52.926;11.116;2022-12-07T14:43:17;0.90;;;0.90;;
49103;SDS011;34915;52.926;11.116;2022-12-07T14:45:45;3.77;;;0.70;;
49103;SDS011;34915;52.926;11.116;2022-12-07T14:48:11;8.63;;;1.53;;
49103;SDS011;34915;52.926;11.116;2022-12-07T14:50:44;1.10;;;0.90;;
49103;SDS011;34915;52.926;11.116;2022-12-07T14:53:12;1.77;;;1.03;;
49103;SDS011;34915;52.926;11.116;2022-12-07T14:55:40;1.00;;;0.90;;
49103;SDS011;34915;52.926;11.116;2022-12-07T14:58:05;0.97;;;0.93;;
49103;SDS011;34915;52.926;11.116;2022-12-07T15:00:31;1.07;;;0.87;;
49103;SDS011;34915;52.926;11.116;2022-12-07T15:02:59;0.50;;;0.50;;
49103;SDS011;34915;52.926;11.116;2022-12-07T15:05:24;5.40;;;1.27;;
49103;SDS011;34915;52.926;11.116;2022-12-07T15:07:50;1.83;;;1.00;;
49103;SDS011;34915;52.926;11.116;2022-12-07T15:10:24;1.83;;;0.83;;
49103;SDS011;34915;52.926;11.116;2022-12-07T15:13:00;1.40;;;1.30;;
49103;SDS011;34915;52.926;11.116;2022-12-07T15:15:49;2.23;;;1.47;;
49103;SDS011;34915;52.926;11.116;2022-12-07T15:18:16;4.47;;;1.33;;
49103;SDS011;34915;52.926;11.116;2022-12-07T15:20:43;1.60;;;1.20;;
49103;SDS011;34915;52.926;11.116;2022-12-07T15:23:09;1.80;;;1.70;;
49103;SDS011;34915;52.926;11.116;2022-12-07T15:25:36;1.60;;;1.50;;
49103;SDS011;34915;52.926;11.116;2022-12-07T15:28:01;0.80;;;0.80;;
49103;SDS011;34915;52.926;11.116;2022-12-07T15:30:27;1.03;;;0.93;;
49103;SDS011;34915;52.926;11.116;2022-12-07T15:32:53;0.57;;;0.57;;
49103;SDS011;34915;52.926;11.116;2022-12-07T15:35:19;2.10;;;0.97;;
49103;SDS011;34915;52.926;11.116;2022-12-07T15:37:45;2.87;;;1.17;;
49103;SDS011;34915;52.926;11.116;2022-12-07T15:40:11;1.67;;;1.00;;
49103;SDS011;34915;52.926;11.116;2022-12-07T15:42:38;0.97;;;0.90;;
49103;SDS011;34915;52.926;11.116;2022-12-07T15:45:04;1.70;;;1.57;;
49103;SDS011;34915;52.926;11.116;2022-12-07T15:47:33;1.37;;;1.27;;
49103;SDS011;34915;52.926;11.116;2022-12-07T15:50:02;2.00;;;1.80;;
49103;SDS011;34915;52.926;11.116;2022-12-07T15:52:29;2.40;;;2.00;;
49103;SDS011;34915;52.926;11.116;2022-12-07T15:54:55;1.93;;;1.73;;
49103;SDS011;34915;52.926;11.116;2022-12-07T15:57:21;2.00;;;1.60;;
49103;SDS011;34915;52.926;11.116;2022-12-07T15:59:46;3.53;;;1.87;;
49103;SDS011;34915;52.926;11.116;2022-12-07T16:02:12;3.03;;;2.00;;
49103;SDS011;34915;52.926;11.116;2022-12-07T16:04:38;2.93;;;2.00;;
49103;SDS011;34915;52.926;11.116;2022-12-07T16:07:07;2.07;;;1.87;;
49103;SDS011;34915;52.926;11.116;2022-12-07T16:09:33;2.87;;;2.00;;
49103;SDS011;34915;52.926;11.116;2022-12-07T16:11:58;4.50;;;2.20;;
49103;SDS011;34915;52.926;11.116;2022-12-07T16:14:24;2.70;;;2.33;;
49103;SDS011;34915;52.926;11.116;2022-12-07T16:16:50;3.43;;;1.77;;
49103;SDS011;34915;52.926;11.116;2022-12-07T16:19:15;2.67;;;1.90;;
49103;SDS011;34915;52.926;11.116;2022-12-07T16:21:41;1.43;;;1.33;;
49103;SDS011;34915;52.926;11.116;2022-12-07T16:24:09;2.33;;;1.87;;
49103;SDS011;34915;52.926;11.116;2022-12-07T16:26:35;2.50;;;2.13;;
49103;SDS011;34915;52.926;11.116;2022-12-07T16:29:01;2.90;;;2.30;;
49103;SDS011;34915;52.926;11.116;2022-12-07T16:31:27;5.50;;;2.67;;
49103;SDS011;34915;52.926;11.116;2022-12-07T16:33:54;2.83;;;2.53;;
49103;SDS011;34915;52.926;11.116;2022-12-07T16:36:21;4.30;;;2.70;;
49103;SDS011;34915;52.926;11.116;2022-12-07T16:38:49;4.10;;;2.87;;
49103;SDS011;34915;52.926;11.116;2022-12-07T16:41:15;4.47;;;2.37;;
49103;SDS011;34915;52.926;11.116;2022-12-07T16:43:41;4.50;;;2.63;;
49103;SDS011;34915;52.926;11.116;2022-12-07T16:46:06;1.90;;;1.23;;
49103;SDS011;34915;52.926;11.116;2022-12-07T16:48:34;2.50;;;1.87;;
49103;SDS011;34915;52.926;11.116;2022-12-07T16:51:05;2.83;;;2.50;;
49103;SDS011;34915;52.926;11.116;2022-12-07T16:53:34;2.20;;;1.83;;
49103;SDS011;34915;52.926;11.116;2022-12-07T16:56:01;1.80;;;1.27;;
49103;SDS011;34915;52.926;11.116;2022-12-07T16:58:26;4.00;;;1.97;;
49103;SDS011;34915;52.926;11.116;2022-12-07T17:00:52;1.63;;;1.50;;
49103;SDS011;34915;52.926;11.116;2022-12-07T17:03:18;6.40;;;2.40;;
49103;SDS011;34915;52.926;11.116;2022-12-07T17:05:44;5.03;;;2.60;;
49103;SDS011;34915;52.926;11.116;2022-12-07T17:08:11;5.50;;;2.63;;
49103;SDS011;34915;52.926;11.116;2022-12-07T17:10:40;2.97;;;2.40;;